createdAt,value
2023-02-07T00:01:29.854Z,99.20
2023-02-07T00:03:59.238Z,99.20
2023-02-07T00:06:32.459Z,99.20
2023-02-07T00:09:02.974Z,99.20
2023-02-07T00:11:30.620Z,99.20
2023-02-07T00:13:59.419Z,99.20
2023-02-07T00:16:27.934Z,99.20
2023-02-07T00:18:58.327Z,99.20
2023-02-07T00:21:27.744Z,99.20
2023-02-07T00:23:55.715Z,99.20
2023-02-07T00:26:25.067Z,99.20
2023-02-07T00:28:54.059Z,99.10
2023-02-07T00:31:23.229Z,99.20
2023-02-07T00:33:52.134Z,99.20
2023-02-07T00:36:22.092Z,99.10
2023-02-07T00:38:49.870Z,99.10
2023-02-07T00:41:19.930Z,99.10
2023-02-07T00:43:48.218Z,99.10
2023-02-07T00:46:16.801Z,99.10
2023-02-07T00:48:45.242Z,99.10
2023-02-07T00:51:14.510Z,99.20
2023-02-07T00:53:42.082Z,99.20
2023-02-07T00:56:10.886Z,99.20
2023-02-07T00:58:38.497Z,99.30
2023-02-07T01:01:07.424Z,99.30
2023-02-07T01:03:35.786Z,99.30
2023-02-07T01:06:03.476Z,99.30
2023-02-07T01:08:31.105Z,99.40
2023-02-07T01:11:03.079Z,99.40
2023-02-07T01:13:31.450Z,99.50
2023-02-07T01:15:59.822Z,99.50
2023-02-07T01:18:28.930Z,99.40
2023-02-07T01:20:56.449Z,99.40
2023-02-07T01:23:24.014Z,99.50
2023-02-07T01:25:51.501Z,99.50
2023-02-07T01:28:19.064Z,99.50
2023-02-07T01:30:46.632Z,99.50
2023-02-07T01:33:14.434Z,99.50
2023-02-07T01:35:41.996Z,99.50
2023-02-07T01:38:09.519Z,99.50
2023-02-07T01:40:38.506Z,99.60
2023-02-07T01:43:07.496Z,99.70
2023-02-07T01:45:40.450Z,99.70
2023-02-07T01:48:15.360Z,99.80
2023-02-07T01:50:46.930Z,99.80
2023-02-07T01:53:17.523Z,99.80
2023-02-07T01:55:47.696Z,99.80
2023-02-07T01:58:15.949Z,99.80
2023-02-07T02:00:45.548Z,99.70
2023-02-07T02:03:13.258Z,99.80
2023-02-07T02:05:43.606Z,99.80
2023-02-07T02:08:11.690Z,99.80
2023-02-07T02:11:05.851Z,99.80
2023-02-07T02:13:39.656Z,99.90
2023-02-07T02:16:29.420Z,99.90
2023-02-07T02:18:59.983Z,99.90
2023-02-07T02:22:00.836Z,99.90
2023-02-07T02:24:53.352Z,99.90
2023-02-07T02:27:48.387Z,99.90
2023-02-07T02:30:49.356Z,99.90
2023-02-07T02:33:42.111Z,99.90
2023-02-07T02:36:36.558Z,99.90
2023-02-07T02:39:12.281Z,99.90
2023-02-07T02:41:55.669Z,99.90
2023-02-07T02:44:34.942Z,99.90
2023-02-07T02:47:04.633Z,99.90
2023-02-07T02:49:34.593Z,99.90
2023-02-07T02:52:03.142Z,99.90
2023-02-07T02:54:38.965Z,99.90
2023-02-07T02:57:49.423Z,99.90
2023-02-07T03:00:34.550Z,99.90
2023-02-07T03:03:44.623Z,99.90
2023-02-07T03:06:33.419Z,99.90
2023-02-07T03:09:15.670Z,99.90
2023-02-07T03:11:58.988Z,99.90
2023-02-07T03:14:42.077Z,99.90
2023-02-07T03:17:45.159Z,99.90
2023-02-07T03:21:00.477Z,99.90
2023-02-07T03:23:30.799Z,99.90
2023-02-07T03:26:01.799Z,99.90
2023-02-07T03:28:33.464Z,99.90
2023-02-07T03:31:02.835Z,99.90
2023-02-07T03:33:31.308Z,99.90
2023-02-07T03:36:19.625Z,99.90
2023-02-07T03:38:47.854Z,99.90
2023-02-07T03:41:31.276Z,99.90
2023-02-07T03:44:01.184Z,99.90
2023-02-07T03:46:34.669Z,99.90
2023-02-07T03:49:02.487Z,99.90
2023-02-07T03:51:30.205Z,99.90
2023-02-07T03:53:57.780Z,99.90
2023-02-07T03:56:25.563Z,99.90
2023-02-07T03:58:53.128Z,99.90
2023-02-07T04:01:21.288Z,99.90
2023-02-07T04:03:48.945Z,99.90
2023-02-07T04:06:16.830Z,99.90
2023-02-07T04:08:44.640Z,99.90
2023-02-07T04:11:12.477Z,99.90
2023-02-07T04:13:40.340Z,99.90
2023-02-07T04:16:08.388Z,99.90
2023-02-07T04:18:36.403Z,99.90
2023-02-07T04:21:06.872Z,99.90
2023-02-07T04:23:35.616Z,99.90
2023-02-07T04:26:03.638Z,99.90
2023-02-07T04:28:31.672Z,99.90
2023-02-07T04:30:59.283Z,99.90
2023-02-07T04:33:26.977Z,99.90
2023-02-07T04:36:00.259Z,99.90
2023-02-07T04:38:28.902Z,99.90
2023-02-07T04:41:03.543Z,99.90
2023-02-07T04:43:37.340Z,99.90
2023-02-07T04:46:06.709Z,99.90
2023-02-07T04:48:36.503Z,99.90
2023-02-07T04:51:05.465Z,99.90
2023-02-07T04:53:33.865Z,99.90
2023-02-07T04:56:01.700Z,99.90
2023-02-07T04:58:29.323Z,99.90
2023-02-07T05:00:57.181Z,99.90
2023-02-07T05:03:24.841Z,99.90
2023-02-07T05:05:54.743Z,99.90
2023-02-07T05:08:22.975Z,99.90
2023-02-07T05:10:55.722Z,99.90
2023-02-07T05:13:24.327Z,99.90
2023-02-07T05:15:51.946Z,99.90
2023-02-07T05:18:20.794Z,99.90
2023-02-07T05:20:49.200Z,99.90
2023-02-07T05:23:18.043Z,99.90
2023-02-07T05:25:48.167Z,99.90
2023-02-07T05:28:16.593Z,99.90
2023-02-07T05:30:44.826Z,99.90
2023-02-07T05:33:12.517Z,99.90
2023-02-07T05:35:46.376Z,99.90
2023-02-07T05:38:16.729Z,99.90
2023-02-07T05:40:44.679Z,99.90
2023-02-07T05:43:13.739Z,99.90
2023-02-07T05:45:41.661Z,99.90
2023-02-07T05:48:09.413Z,99.90
2023-02-07T05:50:37.257Z,99.90
2023-02-07T05:53:11.032Z,99.90
2023-02-07T05:55:38.904Z,99.90
2023-02-07T05:58:06.963Z,99.90
2023-02-07T06:00:34.689Z,99.90
2023-02-07T06:03:02.320Z,99.90
2023-02-07T06:05:31.869Z,99.90
2023-02-07T06:08:00.117Z,99.90
2023-02-07T06:10:27.930Z,99.90
2023-02-07T06:12:55.754Z,99.90
2023-02-07T06:15:23.742Z,99.90
2023-02-07T06:17:51.463Z,99.90
2023-02-07T06:20:19.153Z,99.90
2023-02-07T06:22:46.783Z,99.90
2023-02-07T06:25:15.167Z,99.90
2023-02-07T06:27:42.823Z,99.90
2023-02-07T06:30:12.276Z,99.90
2023-02-07T06:32:40.145Z,99.90
2023-02-07T06:35:08.803Z,99.90
2023-02-07T06:37:36.236Z,99.90
2023-02-07T06:40:04.223Z,99.90
2023-02-07T06:42:31.867Z,99.90
2023-02-07T06:44:59.415Z,99.90
2023-02-07T06:47:27.185Z,99.90
2023-02-07T06:49:54.666Z,99.90
2023-02-07T06:52:22.325Z,99.90
2023-02-07T06:54:50.144Z,99.90
2023-02-07T06:57:17.593Z,99.90
2023-02-07T06:59:45.232Z,99.90
2023-02-07T07:02:13.087Z,99.90
2023-02-07T07:04:40.827Z,99.90
2023-02-07T07:07:08.298Z,99.90
2023-02-07T07:09:35.917Z,99.90
2023-02-07T07:12:04.667Z,99.90
2023-02-07T07:14:32.681Z,99.90
2023-02-07T07:17:00.400Z,99.90
2023-02-07T07:19:28.044Z,99.90
2023-02-07T07:21:55.700Z,99.90
2023-02-07T07:24:23.211Z,99.90
2023-02-07T07:26:50.994Z,99.90
2023-02-07T07:29:19.763Z,99.90
2023-02-07T07:31:47.419Z,99.90
2023-02-07T07:34:15.512Z,99.90
2023-02-07T07:36:43.170Z,99.90
2023-02-07T07:39:11.813Z,99.90
2023-02-07T07:41:39.283Z,99.90
2023-02-07T07:44:11.794Z,99.90
2023-02-07T07:46:39.251Z,99.90
2023-02-07T07:49:06.729Z,99.90
2023-02-07T07:51:34.384Z,99.90
2023-02-07T07:54:01.859Z,99.90
2023-02-07T07:56:29.627Z,99.90
2023-02-07T07:58:57.661Z,99.90
2023-02-07T08:01:25.239Z,99.90
2023-02-07T08:03:52.953Z,99.90
2023-02-07T08:06:20.631Z,99.90
2023-02-07T08:08:48.381Z,99.90
2023-02-07T08:11:16.595Z,99.90
2023-02-07T08:13:44.305Z,99.90
2023-02-07T08:16:12.389Z,99.90
2023-02-07T08:18:40.235Z,99.90
2023-02-07T08:21:07.917Z,99.90
2023-02-07T08:23:36.051Z,99.90
2023-02-07T08:26:06.668Z,99.90
2023-02-07T08:28:35.084Z,99.90
2023-02-07T08:31:05.246Z,99.90
2023-02-07T08:33:33.269Z,99.90
2023-02-07T08:36:01.067Z,99.90
2023-02-07T08:38:28.486Z,99.90
2023-02-07T08:40:55.989Z,99.90
2023-02-07T08:43:23.477Z,99.90
2023-02-07T08:45:51.144Z,99.90
2023-02-07T08:48:19.216Z,99.90
2023-02-07T08:50:47.083Z,99.90
2023-02-07T08:53:15.128Z,99.90
2023-02-07T08:55:43.982Z,99.90
2023-02-07T08:58:11.953Z,99.90
2023-02-07T09:00:39.595Z,99.90
2023-02-07T09:03:07.225Z,99.90
2023-02-07T09:05:34.762Z,99.90
2023-02-07T09:08:02.769Z,99.90
2023-02-07T09:10:30.748Z,99.90
2023-02-07T09:12:58.319Z,99.90
2023-02-07T09:15:26.244Z,99.90
2023-02-07T09:17:54.036Z,99.90
2023-02-07T09:20:21.826Z,99.90
2023-02-07T09:23:07.887Z,99.90
2023-02-07T09:25:38.235Z,99.90
2023-02-07T09:28:05.899Z,99.90
2023-02-07T09:30:33.697Z,99.90
2023-02-07T09:33:02.420Z,99.90
2023-02-07T09:35:30.477Z,99.90
2023-02-07T09:37:58.040Z,99.90
2023-02-07T09:40:26.049Z,99.90
2023-02-07T09:43:12.354Z,99.90
2023-02-07T09:45:45.469Z,99.90
2023-02-07T09:48:23.089Z,99.90
2023-02-07T09:50:59.445Z,99.90
2023-02-07T09:53:40.339Z,99.90
2023-02-07T09:56:08.932Z,99.90
2023-02-07T09:58:56.974Z,99.90
2023-02-07T10:01:33.454Z,99.90
2023-02-07T10:04:21.783Z,99.90
2023-02-07T10:06:53.772Z,99.90
2023-02-07T10:09:33.186Z,99.90
2023-02-07T10:12:26.385Z,99.90
2023-02-07T10:15:10.635Z,99.90
2023-02-07T10:18:29.972Z,99.90
2023-02-07T10:21:13.951Z,99.90
2023-02-07T10:23:57.026Z,99.90
2023-02-07T10:26:29.833Z,99.90
2023-02-07T10:29:14.563Z,99.90
2023-02-07T10:31:47.624Z,99.90
2023-02-07T10:34:24.823Z,99.90
2023-02-07T10:36:56.202Z,99.90
2023-02-07T10:39:37.233Z,99.90
2023-02-07T10:42:04.951Z,99.90
2023-02-07T10:44:32.942Z,99.90
2023-02-07T10:47:01.484Z,99.90
2023-02-07T10:49:32.792Z,99.90
2023-02-07T10:52:23.687Z,99.90
2023-02-07T10:55:03.022Z,99.90
2023-02-07T10:57:31.693Z,99.90
2023-02-07T11:00:02.027Z,99.90
2023-02-07T11:02:32.929Z,99.90
2023-02-07T11:05:15.573Z,99.90
2023-02-07T11:08:03.449Z,99.90
2023-02-07T11:10:37.770Z,99.90
2023-02-07T11:13:19.159Z,99.90
2023-02-07T11:15:52.922Z,99.90
2023-02-07T11:18:46.928Z,99.90
2023-02-07T11:21:29.561Z,99.90
2023-02-07T11:24:19.109Z,99.90
2023-02-07T11:27:06.928Z,99.90
2023-02-07T11:29:47.414Z,99.90
2023-02-07T11:32:16.408Z,99.90
2023-02-07T11:34:58.321Z,99.90
2023-02-07T11:37:27.459Z,99.90
2023-02-07T11:40:36.330Z,99.90
2023-02-07T11:43:18.378Z,99.90
2023-02-07T11:46:03.688Z,99.90
2023-02-07T11:48:37.762Z,99.90
2023-02-07T11:51:08.635Z,99.90
2023-02-07T11:54:00.001Z,99.20
2023-02-07T11:56:31.383Z,98.80
2023-02-07T11:58:59.612Z,98.40
2023-02-07T12:01:32.911Z,98.10
2023-02-07T12:04:10.224Z,97.60
2023-02-07T12:06:46.865Z,96.90
2023-02-07T12:09:36.080Z,96.50
2023-02-07T12:12:06.934Z,95.90
2023-02-07T12:14:48.690Z,95.70
2023-02-07T12:17:23.183Z,95.30
2023-02-07T12:20:07.198Z,94.90
2023-02-07T12:22:44.302Z,94.30
2023-02-07T12:25:26.072Z,93.70
2023-02-07T12:27:59.299Z,93.20
2023-02-07T12:30:40.334Z,92.80
2023-02-07T12:33:34.253Z,91.90
2023-02-07T12:36:20.079Z,92.90
2023-02-07T12:38:58.709Z,92.10
2023-02-07T12:41:33.959Z,91.00
2023-02-07T12:44:26.547Z,90.30
2023-02-07T12:47:01.697Z,88.90
2023-02-07T12:50:01.591Z,88.20
2023-02-07T12:52:59.596Z,86.60
2023-02-07T12:55:57.788Z,84.90
2023-02-07T12:58:50.485Z,84.10
2023-02-07T13:01:45.729Z,82.40
2023-02-07T13:04:34.138Z,80.90
2023-02-07T13:07:38.324Z,80.30
2023-02-07T13:10:15.062Z,80.20
2023-02-07T13:13:06.236Z,80.80
2023-02-07T13:15:37.416Z,79.60
2023-02-07T13:18:15.893Z,78.80
2023-02-07T13:21:08.514Z,78.20
2023-02-07T13:23:40.059Z,76.60
2023-02-07T13:26:21.499Z,76.20
2023-02-07T13:28:54.940Z,75.20
2023-02-07T13:31:38.014Z,74.20
2023-02-07T13:34:13.453Z,72.60
2023-02-07T13:36:46.867Z,72.10
2023-02-07T13:39:29.827Z,71.90
2023-02-07T13:42:24.457Z,71.50
2023-02-07T13:45:03.013Z,70.60
2023-02-07T13:47:39.564Z,70.00
2023-02-07T13:50:15.376Z,69.30
2023-02-07T13:52:49.592Z,69.30
2023-02-07T13:55:30.720Z,68.70
2023-02-07T13:58:17.065Z,67.60
2023-02-07T14:01:07.652Z,68.00
2023-02-07T14:03:35.835Z,65.30
2023-02-07T14:06:15.829Z,65.40
2023-02-07T14:08:45.186Z,63.80
2023-02-07T14:11:33.949Z,63.90
2023-02-07T14:14:27.773Z,62.00
2023-02-07T14:16:56.736Z,61.40
2023-02-07T14:19:42.825Z,61.80
2023-02-07T14:22:18.147Z,59.70
2023-02-07T14:25:10.879Z,58.40
2023-02-07T14:27:43.699Z,57.90
2023-02-07T14:30:17.527Z,58.50
2023-02-07T14:33:06.441Z,57.30
2023-02-07T14:35:37.247Z,57.30
2023-02-07T14:38:04.681Z,57.40
2023-02-07T14:41:01.846Z,58.50
2023-02-07T14:43:59.762Z,57.00
2023-02-07T14:46:41.308Z,57.20
2023-02-07T14:49:49.007Z,57.20
2023-02-07T14:52:26.391Z,55.90
2023-02-07T14:54:58.858Z,56.00
2023-02-07T14:57:50.584Z,56.00
2023-02-07T15:00:18.283Z,55.70
2023-02-07T15:02:58.467Z,56.00
2023-02-07T15:05:39.833Z,55.40
2023-02-07T15:08:15.301Z,55.70
2023-02-07T15:10:53.617Z,55.90
2023-02-07T15:13:32.237Z,55.90
2023-02-07T15:16:17.748Z,55.80
2023-02-07T15:18:49.736Z,55.80
2023-02-07T15:21:31.783Z,56.10
2023-02-07T15:24:39.861Z,55.60
2023-02-07T15:27:22.248Z,55.30
2023-02-07T15:29:58.668Z,55.60
2023-02-07T15:32:35.265Z,55.40
2023-02-07T15:35:13.947Z,55.40
2023-02-07T15:37:41.474Z,54.80
2023-02-07T15:40:25.693Z,55.10
2023-02-07T15:42:58.799Z,55.00
2023-02-07T15:45:29.967Z,55.30
2023-02-07T15:48:03.877Z,55.40
2023-02-07T15:50:31.643Z,55.50
2023-02-07T15:53:02.166Z,55.60
2023-02-07T15:55:45.866Z,55.60
2023-02-07T15:58:37.697Z,55.80
2023-02-07T16:01:17.416Z,56.30
2023-02-07T16:03:47.436Z,56.70
2023-02-07T16:06:23.851Z,57.30
2023-02-07T16:08:58.623Z,57.60
2023-02-07T16:11:26.401Z,58.10
2023-02-07T16:13:54.898Z,58.60
2023-02-07T16:16:27.404Z,59.00
2023-02-07T16:19:31.317Z,59.30
2023-02-07T16:22:08.409Z,59.90
2023-02-07T16:24:39.086Z,60.00
2023-02-07T16:27:07.395Z,60.50
2023-02-07T16:29:36.614Z,62.30
2023-02-07T16:32:04.977Z,62.30
2023-02-07T16:34:32.758Z,62.50
2023-02-07T16:37:00.433Z,63.70
2023-02-07T16:39:28.423Z,63.30
2023-02-07T16:42:03.609Z,63.70
2023-02-07T16:44:34.876Z,64.20
2023-02-07T16:47:02.984Z,64.70
2023-02-07T16:49:31.695Z,65.00
2023-02-07T16:51:59.785Z,65.70
2023-02-07T16:54:27.706Z,66.50
2023-02-07T16:57:01.450Z,67.30
2023-02-07T16:59:30.426Z,68.40
2023-02-07T17:01:57.929Z,68.90
2023-02-07T17:04:25.551Z,69.70
2023-02-07T17:06:53.105Z,70.50
2023-02-07T17:09:24.111Z,71.90
2023-02-07T17:11:55.098Z,72.00
2023-02-07T17:14:22.540Z,72.40
2023-02-07T17:16:50.280Z,72.40
2023-02-07T17:19:23.873Z,73.80
2023-02-07T17:21:52.667Z,74.90
2023-02-07T17:24:20.474Z,75.30
2023-02-07T17:26:51.197Z,75.90
2023-02-07T17:29:19.532Z,76.60
2023-02-07T17:31:47.288Z,77.10
2023-02-07T17:34:15.899Z,77.80
2023-02-07T17:36:49.359Z,78.50
2023-02-07T17:39:18.867Z,79.20
2023-02-07T17:41:46.641Z,79.50
2023-02-07T17:44:14.262Z,79.90
2023-02-07T17:46:41.736Z,80.80
2023-02-07T17:49:14.640Z,81.30
2023-02-07T17:51:42.518Z,82.20
2023-02-07T17:54:10.012Z,82.50
2023-02-07T17:56:37.997Z,83.00
2023-02-07T17:59:22.189Z,83.40
2023-02-07T18:01:53.436Z,83.80
2023-02-07T18:04:24.644Z,84.20
2023-02-07T18:06:53.261Z,84.90
2023-02-07T18:09:21.011Z,85.20
2023-02-07T18:11:49.891Z,85.50
2023-02-07T18:14:17.967Z,86.00
2023-02-07T18:16:45.763Z,86.30
2023-02-07T18:19:18.046Z,87.50
2023-02-07T18:21:45.761Z,87.30
2023-02-07T18:24:13.748Z,87.50
2023-02-07T18:26:41.565Z,88.00
2023-02-07T18:29:09.369Z,88.50
2023-02-07T18:31:36.855Z,88.80
2023-02-07T18:34:04.345Z,89.10
2023-02-07T18:36:40.018Z,89.40
2023-02-07T18:39:09.145Z,89.80
2023-02-07T18:41:36.874Z,90.00
2023-02-07T18:44:04.648Z,90.20
2023-02-07T18:46:32.967Z,90.40
2023-02-07T18:49:00.720Z,90.50
2023-02-07T18:51:28.264Z,90.60
2023-02-07T18:53:55.672Z,90.70
2023-02-07T18:56:25.654Z,90.90
2023-02-07T18:58:56.456Z,90.90
2023-02-07T19:01:28.640Z,90.90
2023-02-07T19:03:58.497Z,90.70
2023-02-07T19:06:28.576Z,90.80
2023-02-07T19:08:56.675Z,90.80
2023-02-07T19:11:24.504Z,90.80
2023-02-07T19:13:52.623Z,90.90
2023-02-07T19:16:23.296Z,90.90
2023-02-07T19:18:51.396Z,90.90
2023-02-07T19:21:26.728Z,90.90
2023-02-07T19:23:56.039Z,91.00
2023-02-07T19:26:24.546Z,91.00
2023-02-07T19:28:53.152Z,91.10
2023-02-07T19:31:22.360Z,91.10
2023-02-07T19:33:50.616Z,91.20
2023-02-07T19:36:19.407Z,91.40
2023-02-07T19:38:48.775Z,91.50
2023-02-07T19:41:19.355Z,91.50
2023-02-07T19:43:47.693Z,91.60
2023-02-07T19:46:15.456Z,91.70
2023-02-07T19:48:44.106Z,91.80
2023-02-07T19:51:17.344Z,91.90
2023-02-07T19:53:46.266Z,92.10
2023-02-07T19:56:14.770Z,92.10
2023-02-07T19:58:45.696Z,92.20
2023-02-07T20:01:14.483Z,92.30
2023-02-07T20:03:43.801Z,92.40
2023-02-07T20:06:13.257Z,92.50
2023-02-07T20:08:41.539Z,92.60
2023-02-07T20:11:12.516Z,92.70
2023-02-07T20:13:44.754Z,92.90
2023-02-07T20:16:15.443Z,93.00
2023-02-07T20:18:45.310Z,93.10
2023-02-07T20:21:19.936Z,93.20
2023-02-07T20:23:50.760Z,93.30
2023-02-07T20:26:32.065Z,93.30
2023-02-07T20:29:01.480Z,93.30
2023-02-07T20:31:31.979Z,93.30
2023-02-07T20:34:02.017Z,93.30
2023-02-07T20:36:31.131Z,93.40
2023-02-07T20:38:59.860Z,93.50
2023-02-07T20:41:29.828Z,93.50
2023-02-07T20:44:09.010Z,93.60
2023-02-07T20:46:37.283Z,93.70
2023-02-07T20:49:12.225Z,93.70
2023-02-07T20:51:42.313Z,93.70
2023-02-07T20:54:11.905Z,93.80
2023-02-07T20:56:39.927Z,94.20
2023-02-07T20:59:08.589Z,93.90
2023-02-07T21:01:36.726Z,93.90
2023-02-07T21:04:06.058Z,94.00
2023-02-07T21:06:34.946Z,94.00
2023-02-07T21:09:06.817Z,94.10
2023-02-07T21:11:37.391Z,94.20
2023-02-07T21:14:08.285Z,94.30
2023-02-07T21:16:36.350Z,94.30
2023-02-07T21:19:03.871Z,94.10
2023-02-07T21:21:32.009Z,94.20
2023-02-07T21:23:59.811Z,94.40
2023-02-07T21:26:27.719Z,94.50
2023-02-07T21:29:00.255Z,94.60
2023-02-07T21:31:29.946Z,94.70
2023-02-07T21:33:58.367Z,94.80
2023-02-07T21:36:29.188Z,94.70
2023-02-07T21:39:00.292Z,94.80
2023-02-07T21:41:30.896Z,94.90
2023-02-07T21:44:02.670Z,94.90
2023-02-07T21:46:33.192Z,95.00
2023-02-07T21:49:03.929Z,95.10
2023-02-07T21:51:32.555Z,95.10
2023-02-07T21:54:01.758Z,94.90
2023-02-07T21:56:32.427Z,95.00
2023-02-07T21:59:02.762Z,95.10
2023-02-07T22:01:34.656Z,95.20
2023-02-07T22:04:04.582Z,95.20
2023-02-07T22:06:36.166Z,95.30
2023-02-07T22:09:05.388Z,95.40
2023-02-07T22:11:35.402Z,95.40
2023-02-07T22:14:04.045Z,95.50
2023-02-07T22:16:33.286Z,95.60
2023-02-07T22:19:02.560Z,95.70
2023-02-07T22:21:33.153Z,95.70
2023-02-07T22:24:02.623Z,95.80
2023-02-07T22:26:30.608Z,95.80
2023-02-07T22:28:59.174Z,95.80
2023-02-07T22:31:29.881Z,95.90
2023-02-07T22:34:04.115Z,95.90
2023-02-07T22:36:34.110Z,96.00
2023-02-07T22:39:03.790Z,96.10
2023-02-07T22:41:31.817Z,96.10
2023-02-07T22:44:01.226Z,96.20
2023-02-07T22:46:29.395Z,96.20
2023-02-07T22:48:57.647Z,96.30
2023-02-07T22:51:28.746Z,96.30
2023-02-07T22:53:58.375Z,96.40
2023-02-07T22:56:26.573Z,96.20
2023-02-07T22:58:55.525Z,96.40
2023-02-07T23:01:29.980Z,96.50
2023-02-07T23:04:02.603Z,96.60
2023-02-07T23:06:32.444Z,96.70
2023-02-07T23:09:00.771Z,96.70
2023-02-07T23:11:28.462Z,96.80
2023-02-07T23:13:56.416Z,96.80
2023-02-07T23:16:25.974Z,96.90
2023-02-07T23:18:56.331Z,96.90
2023-02-07T23:21:25.782Z,97.00
2023-02-07T23:23:54.362Z,97.00
2023-02-07T23:26:23.945Z,97.10
2023-02-07T23:28:53.168Z,97.20
2023-02-07T23:31:23.264Z,97.20
2023-02-07T23:33:51.634Z,97.20
2023-02-07T23:36:20.120Z,97.20
2023-02-07T23:38:48.568Z,97.30
2023-02-07T23:41:16.697Z,97.30
2023-02-07T23:43:44.691Z,97.30
2023-02-07T23:46:14.502Z,97.30
2023-02-07T23:48:42.348Z,97.40
2023-02-07T23:51:11.455Z,97.40
2023-02-07T23:53:39.298Z,97.50
2023-02-07T23:56:07.937Z,97.50
2023-02-07T23:58:36.026Z,97.50
